sensor_id;sensor_type;location;lat;lon;timestamp;P1;durP1;ratioP1;P2;durP2;ratioP2
27013;SDS011;14556;52.222;4.510;2022-07-29T00:01:43;1.90;;;0.93;;
27013;SDS011;14556;52.222;4.510;2022-07-29T00:04:10;2.87;;;0.83;;
27013;SDS011;14556;52.222;4.510;2022-07-29T00:06:36;1.77;;;0.90;;
27013;SDS011;14556;52.222;4.510;2022-07-29T00:09:03;3.40;;;0.90;;
27013;SDS011;14556;52.222;4.510;2022-07-29T00:11:30;1.87;;;0.80;;
27013;SDS011;14556;52.222;4.510;2022-07-29T00:13:56;1.63;;;0.73;;
27013;SDS011;14556;52.222;4.510;2022-07-29T00:16:23;2.73;;;1.00;;
27013;SDS011;14556;52.222;4.510;2022-07-29T00:18:49;1.57;;;0.93;;
27013;SDS011;14556;52.222;4.510;2022-07-29T00:21:16;1.43;;;0.70;;
27013;SDS011;14556;52.222;4.510;2022-07-29T00:23:42;1.87;;;0.80;;
27013;SDS011;14556;52.222;4.510;2022-07-29T00:26:09;2.90;;;0.90;;
27013;SDS011;14556;52.222;4.510;2022-07-29T00:28:35;2.70;;;0.73;;
27013;SDS011;14556;52.222;4.510;2022-07-29T00:31:02;3.57;;;1.10;;
27013;SDS011;14556;52.222;4.510;2022-07-29T00:33:29;6.23;;;1.10;;
27013;SDS011;14556;52.222;4.510;2022-07-29T00:35:55;3.07;;;1.00;;
27013;SDS011;14556;52.222;4.510;2022-07-29T00:38:22;1.93;;;0.90;;
27013;SDS011;14556;52.222;4.510;2022-07-29T00:40:49;1.10;;;0.80;;
27013;SDS011;14556;52.222;4.510;2022-07-29T00:43:15;3.20;;;0.90;;
27013;SDS011;14556;52.222;4.510;2022-07-29T00:45:43;3.50;;;0.90;;
27013;SDS011;14556;52.222;4.510;2022-07-29T00:48:10;1.73;;;0.87;;
27013;SDS011;14556;52.222;4.510;2022-07-29T00:50:36;1.43;;;0.80;;
27013;SDS011;14556;52.222;4.510;2022-07-29T00:53:05;1.53;;;1.00;;
27013;SDS011;14556;52.222;4.510;2022-07-29T00:55:32;2.27;;;0.80;;
27013;SDS011;14556;52.222;4.510;2022-07-29T00:57:59;3.33;;;1.00;;
27013;SDS011;14556;52.222;4.510;2022-07-29T01:00:27;1.40;;;1.00;;
27013;SDS011;14556;52.222;4.510;2022-07-29T01:02:55;2.23;;;1.00;;
27013;SDS011;14556;52.222;4.510;2022-07-29T01:05:23;4.57;;;1.30;;
27013;SDS011;14556;52.222;4.510;2022-07-29T01:08:13;1.40;;;1.00;;
27013;SDS011;14556;52.222;4.510;2022-07-29T01:10:41;2.03;;;0.90;;
27013;SDS011;14556;52.222;4.510;2022-07-29T01:13:09;2.00;;;0.90;;
27013;SDS011;14556;52.222;4.510;2022-07-29T01:15:38;2.43;;;1.13;;
27013;SDS011;14556;52.222;4.510;2022-07-29T01:23:48;1.63;;;0.97;;
27013;SDS011;14556;52.222;4.510;2022-07-29T01:26:28;1.90;;;0.90;;
27013;SDS011;14556;52.222;4.510;2022-07-29T01:29:02;4.13;;;1.00;;
27013;SDS011;14556;52.222;4.510;2022-07-29T01:34:30;3.90;;;1.30;;
27013;SDS011;14556;52.222;4.510;2022-07-29T01:39:44;2.10;;;1.00;;
27013;SDS011;14556;52.222;4.510;2022-07-29T01:42:20;3.10;;;1.00;;
27013;SDS011;14556;52.222;4.510;2022-07-29T01:44:55;2.70;;;0.97;;
27013;SDS011;14556;52.222;4.510;2022-07-29T01:47:26;5.07;;;1.30;;
27013;SDS011;14556;52.222;4.510;2022-07-29T01:50:06;2.57;;;0.90;;
27013;SDS011;14556;52.222;4.510;2022-07-29T01:52:36;2.13;;;0.87;;
27013;SDS011;14556;52.222;4.510;2022-07-29T01:55:13;1.17;;;0.70;;
27013;SDS011;14556;52.222;4.510;2022-07-29T01:57:42;1.50;;;0.80;;
27013;SDS011;14556;52.222;4.510;2022-07-29T02:00:12;3.23;;;1.20;;
27013;SDS011;14556;52.222;4.510;2022-07-29T02:02:40;2.80;;;1.00;;
27013;SDS011;14556;52.222;4.510;2022-07-29T02:05:10;2.73;;;1.03;;
27013;SDS011;14556;52.222;4.510;2022-07-29T02:07:46;1.80;;;1.03;;
27013;SDS011;14556;52.222;4.510;2022-07-29T02:10:15;1.77;;;1.03;;
27013;SDS011;14556;52.222;4.510;2022-07-29T02:12:51;3.20;;;1.07;;
27013;SDS011;14556;52.222;4.510;2022-07-29T02:15:20;4.10;;;1.00;;
27013;SDS011;14556;52.222;4.510;2022-07-29T02:17:52;2.87;;;1.10;;
27013;SDS011;14556;52.222;4.510;2022-07-29T02:20:25;2.70;;;1.00;;
27013;SDS011;14556;52.222;4.510;2022-07-29T02:22:52;1.20;;;1.00;;
27013;SDS011;14556;52.222;4.510;2022-07-29T02:25:21;2.17;;;1.10;;
27013;SDS011;14556;52.222;4.510;2022-07-29T02:27:50;3.03;;;1.40;;
27013;SDS011;14556;52.222;4.510;2022-07-29T02:30:17;4.90;;;1.27;;
27013;SDS011;14556;52.222;4.510;2022-07-29T02:32:47;2.03;;;1.13;;
27013;SDS011;14556;52.222;4.510;2022-07-29T02:35:15;2.13;;;0.97;;
27013;SDS011;14556;52.222;4.510;2022-07-29T02:37:43;2.27;;;1.03;;
27013;SDS011;14556;52.222;4.510;2022-07-29T02:40:11;1.80;;;1.10;;
27013;SDS011;14556;52.222;4.510;2022-07-29T02:42:41;2.67;;;1.00;;
27013;SDS011;14556;52.222;4.510;2022-07-29T02:45:10;1.37;;;0.90;;
27013;SDS011;14556;52.222;4.510;2022-07-29T02:47:40;2.83;;;0.87;;
27013;SDS011;14556;52.222;4.510;2022-07-29T02:50:23;2.13;;;1.03;;
27013;SDS011;14556;52.222;4.510;2022-07-29T02:53:05;1.90;;;1.07;;
27013;SDS011;14556;52.222;4.510;2022-07-29T02:58:27;1.67;;;1.07;;
27013;SDS011;14556;52.222;4.510;2022-07-29T03:00:56;2.37;;;1.33;;
27013;SDS011;14556;52.222;4.510;2022-07-29T03:03:27;3.73;;;1.10;;
27013;SDS011;14556;52.222;4.510;2022-07-29T03:05:57;2.00;;;1.10;;
27013;SDS011;14556;52.222;4.510;2022-07-29T03:08:27;2.53;;;1.10;;
27013;SDS011;14556;52.222;4.510;2022-07-29T03:10:54;1.50;;;1.10;;
27013;SDS011;14556;52.222;4.510;2022-07-29T03:13:21;5.13;;;1.20;;
27013;SDS011;14556;52.222;4.510;2022-07-29T03:15:48;1.40;;;1.30;;
27013;SDS011;14556;52.222;4.510;2022-07-29T03:18:16;1.60;;;1.10;;
27013;SDS011;14556;52.222;4.510;2022-07-29T03:20:43;3.93;;;1.30;;
27013;SDS011;14556;52.222;4.510;2022-07-29T03:23:10;3.40;;;1.30;;
27013;SDS011;14556;52.222;4.510;2022-07-29T03:25:36;5.77;;;1.30;;
27013;SDS011;14556;52.222;4.510;2022-07-29T03:28:03;1.67;;;1.27;;
27013;SDS011;14556;52.222;4.510;2022-07-29T03:30:29;2.97;;;1.30;;
27013;SDS011;14556;52.222;4.510;2022-07-29T03:32:57;3.13;;;1.30;;
27013;SDS011;14556;52.222;4.510;2022-07-29T03:35:24;1.90;;;1.70;;
27013;SDS011;14556;52.222;4.510;2022-07-29T03:37:50;4.40;;;1.40;;
27013;SDS011;14556;52.222;4.510;2022-07-29T03:40:22;3.67;;;1.40;;
27013;SDS011;14556;52.222;4.510;2022-07-29T03:42:51;1.60;;;1.33;;
27013;SDS011;14556;52.222;4.510;2022-07-29T03:45:21;2.00;;;1.30;;
27013;SDS011;14556;52.222;4.510;2022-07-29T03:47:50;4.37;;;1.40;;
27013;SDS011;14556;52.222;4.510;2022-07-29T03:50:25;2.70;;;1.20;;
27013;SDS011;14556;52.222;4.510;2022-07-29T03:52:53;2.27;;;1.30;;
27013;SDS011;14556;52.222;4.510;2022-07-29T03:55:19;4.53;;;1.30;;
27013;SDS011;14556;52.222;4.510;2022-07-29T03:57:46;3.10;;;1.67;;
27013;SDS011;14556;52.222;4.510;2022-07-29T04:00:14;4.33;;;1.20;;
27013;SDS011;14556;52.222;4.510;2022-07-29T04:02:42;6.40;;;1.63;;
27013;SDS011;14556;52.222;4.510;2022-07-29T04:05:14;2.50;;;1.40;;
27013;SDS011;14556;52.222;4.510;2022-07-29T04:07:44;1.90;;;1.20;;
27013;SDS011;14556;52.222;4.510;2022-07-29T04:10:11;5.63;;;1.37;;
27013;SDS011;14556;52.222;4.510;2022-07-29T04:12:38;3.10;;;1.47;;
27013;SDS011;14556;52.222;4.510;2022-07-29T04:15:04;2.83;;;1.47;;
27013;SDS011;14556;52.222;4.510;2022-07-29T04:17:31;3.53;;;1.47;;
27013;SDS011;14556;52.222;4.510;2022-07-29T04:19:58;1.30;;;1.20;;
27013;SDS011;14556;52.222;4.510;2022-07-29T04:22:24;4.33;;;1.30;;
27013;SDS011;14556;52.222;4.510;2022-07-29T04:24:52;2.90;;;1.27;;
27013;SDS011;14556;52.222;4.510;2022-07-29T04:27:18;2.03;;;1.30;;
27013;SDS011;14556;52.222;4.510;2022-07-29T04:29:46;1.73;;;1.37;;
27013;SDS011;14556;52.222;4.510;2022-07-29T04:32:22;3.20;;;1.43;;
27013;SDS011;14556;52.222;4.510;2022-07-29T04:34:50;2.43;;;1.30;;
27013;SDS011;14556;52.222;4.510;2022-07-29T04:37:16;1.63;;;1.27;;
27013;SDS011;14556;52.222;4.510;2022-07-29T04:39:43;2.33;;;1.50;;
27013;SDS011;14556;52.222;4.510;2022-07-29T04:42:09;4.73;;;1.37;;
27013;SDS011;14556;52.222;4.510;2022-07-29T04:44:36;4.37;;;1.33;;
27013;SDS011;14556;52.222;4.510;2022-07-29T04:47:07;3.07;;;1.40;;
27013;SDS011;14556;52.222;4.510;2022-07-29T04:49:36;2.47;;;1.50;;
27013;SDS011;14556;52.222;4.510;2022-07-29T04:52:04;3.33;;;1.40;;
27013;SDS011;14556;52.222;4.510;2022-07-29T04:54:31;3.27;;;1.23;;
27013;SDS011;14556;52.222;4.510;2022-07-29T04:56:57;5.23;;;1.47;;
27013;SDS011;14556;52.222;4.510;2022-07-29T04:59:24;1.83;;;1.23;;
27013;SDS011;14556;52.222;4.510;2022-07-29T05:01:51;3.23;;;1.30;;
27013;SDS011;14556;52.222;4.510;2022-07-29T05:04:17;1.73;;;1.33;;
27013;SDS011;14556;52.222;4.510;2022-07-29T05:06:45;1.53;;;1.40;;
27013;SDS011;14556;52.222;4.510;2022-07-29T05:09:11;1.83;;;1.30;;
27013;SDS011;14556;52.222;4.510;2022-07-29T05:11:38;5.27;;;1.43;;
27013;SDS011;14556;52.222;4.510;2022-07-29T05:14:04;5.23;;;1.23;;
27013;SDS011;14556;52.222;4.510;2022-07-29T05:16:31;3.20;;;1.53;;
27013;SDS011;14556;52.222;4.510;2022-07-29T05:18:57;2.43;;;1.40;;
27013;SDS011;14556;52.222;4.510;2022-07-29T05:21:24;3.43;;;1.23;;
27013;SDS011;14556;52.222;4.510;2022-07-29T05:23:50;1.70;;;1.47;;
27013;SDS011;14556;52.222;4.510;2022-07-29T05:26:16;4.40;;;1.60;;
27013;SDS011;14556;52.222;4.510;2022-07-29T05:28:43;2.60;;;1.60;;
27013;SDS011;14556;52.222;4.510;2022-07-29T05:31:09;1.90;;;1.27;;
27013;SDS011;14556;52.222;4.510;2022-07-29T05:33:36;2.93;;;1.30;;
27013;SDS011;14556;52.222;4.510;2022-07-29T05:36:06;2.60;;;1.20;;
27013;SDS011;14556;52.222;4.510;2022-07-29T05:38:34;2.57;;;1.37;;
27013;SDS011;14556;52.222;4.510;2022-07-29T05:41:01;4.43;;;1.30;;
27013;SDS011;14556;52.222;4.510;2022-07-29T05:43:28;3.07;;;1.27;;
27013;SDS011;14556;52.222;4.510;2022-07-29T05:45:55;2.77;;;1.23;;
27013;SDS011;14556;52.222;4.510;2022-07-29T05:48:22;1.97;;;1.50;;
27013;SDS011;14556;52.222;4.510;2022-07-29T05:50:49;3.03;;;1.63;;
27013;SDS011;14556;52.222;4.510;2022-07-29T05:53:15;1.73;;;1.27;;
27013;SDS011;14556;52.222;4.510;2022-07-29T05:55:45;2.03;;;1.27;;
27013;SDS011;14556;52.222;4.510;2022-07-29T05:58:12;1.83;;;1.10;;
27013;SDS011;14556;52.222;4.510;2022-07-29T06:00:39;1.70;;;1.40;;
27013;SDS011;14556;52.222;4.510;2022-07-29T06:03:06;3.63;;;1.70;;
27013;SDS011;14556;52.222;4.510;2022-07-29T06:05:32;2.30;;;1.27;;
27013;SDS011;14556;52.222;4.510;2022-07-29T06:07:59;2.80;;;1.57;;
27013;SDS011;14556;52.222;4.510;2022-07-29T06:10:25;3.20;;;1.83;;
27013;SDS011;14556;52.222;4.510;2022-07-29T06:12:52;4.33;;;1.80;;
27013;SDS011;14556;52.222;4.510;2022-07-29T06:15:19;4.77;;;1.57;;
27013;SDS011;14556;52.222;4.510;2022-07-29T06:17:46;2.57;;;1.67;;
27013;SDS011;14556;52.222;4.510;2022-07-29T06:20:30;3.87;;;1.70;;
27013;SDS011;14556;52.222;4.510;2022-07-29T06:22:58;3.30;;;1.60;;
27013;SDS011;14556;52.222;4.510;2022-07-29T06:25:25;3.17;;;1.50;;
27013;SDS011;14556;52.222;4.510;2022-07-29T06:27:55;7.03;;;1.70;;
27013;SDS011;14556;52.222;4.510;2022-07-29T06:30:23;5.37;;;1.57;;
27013;SDS011;14556;52.222;4.510;2022-07-29T06:32:49;2.23;;;1.70;;
27013;SDS011;14556;52.222;4.510;2022-07-29T06:35:17;2.77;;;1.60;;
27013;SDS011;14556;52.222;4.510;2022-07-29T06:38:04;2.50;;;1.30;;
27013;SDS011;14556;52.222;4.510;2022-07-29T06:40:50;4.70;;;1.83;;
27013;SDS011;14556;52.222;4.510;2022-07-29T06:43:27;1.80;;;1.43;;
27013;SDS011;14556;52.222;4.510;2022-07-29T06:45:58;5.57;;;1.93;;
27013;SDS011;14556;52.222;4.510;2022-07-29T06:48:29;2.87;;;1.60;;
27013;SDS011;14556;52.222;4.510;2022-07-29T06:50:55;2.63;;;1.60;;
27013;SDS011;14556;52.222;4.510;2022-07-29T06:53:22;3.07;;;1.63;;
27013;SDS011;14556;52.222;4.510;2022-07-29T06:55:49;2.97;;;1.50;;
27013;SDS011;14556;52.222;4.510;2022-07-29T06:58:15;3.93;;;1.60;;
27013;SDS011;14556;52.222;4.510;2022-07-29T07:00:44;3.37;;;1.70;;
27013;SDS011;14556;52.222;4.510;2022-07-29T07:03:11;4.37;;;2.03;;
27013;SDS011;14556;52.222;4.510;2022-07-29T07:05:37;4.80;;;1.70;;
27013;SDS011;14556;52.222;4.510;2022-07-29T07:08:04;5.83;;;2.20;;
27013;SDS011;14556;52.222;4.510;2022-07-29T07:10:30;5.23;;;1.87;;
27013;SDS011;14556;52.222;4.510;2022-07-29T07:12:57;5.10;;;1.80;;
27013;SDS011;14556;52.222;4.510;2022-07-29T07:15:23;2.53;;;1.47;;
27013;SDS011;14556;52.222;4.510;2022-07-29T07:18:05;1.73;;;1.40;;
27013;SDS011;14556;52.222;4.510;2022-07-29T07:20:33;3.70;;;1.60;;
27013;SDS011;14556;52.222;4.510;2022-07-29T07:22:59;3.33;;;1.83;;
27013;SDS011;14556;52.222;4.510;2022-07-29T07:25:26;2.13;;;1.70;;
27013;SDS011;14556;52.222;4.510;2022-07-29T07:27:53;4.83;;;1.83;;
27013;SDS011;14556;52.222;4.510;2022-07-29T07:30:19;2.90;;;1.50;;
27013;SDS011;14556;52.222;4.510;2022-07-29T07:32:46;5.27;;;2.00;;
27013;SDS011;14556;52.222;4.510;2022-07-29T07:35:12;2.33;;;1.47;;
27013;SDS011;14556;52.222;4.510;2022-07-29T07:37:39;4.40;;;1.80;;
27013;SDS011;14556;52.222;4.510;2022-07-29T07:40:07;2.73;;;1.63;;
27013;SDS011;14556;52.222;4.510;2022-07-29T07:42:35;4.03;;;1.80;;
27013;SDS011;14556;52.222;4.510;2022-07-29T07:45:05;3.47;;;1.90;;
27013;SDS011;14556;52.222;4.510;2022-07-29T07:47:41;1.90;;;1.23;;
27013;SDS011;14556;52.222;4.510;2022-07-29T07:50:09;1.97;;;1.57;;
27013;SDS011;14556;52.222;4.510;2022-07-29T07:52:47;2.67;;;1.60;;
27013;SDS011;14556;52.222;4.510;2022-07-29T07:55:18;2.80;;;1.37;;
27013;SDS011;14556;52.222;4.510;2022-07-29T07:57:45;3.63;;;2.07;;
27013;SDS011;14556;52.222;4.510;2022-07-29T08:00:12;1.63;;;1.30;;
27013;SDS011;14556;52.222;4.510;2022-07-29T08:02:40;3.03;;;1.70;;
27013;SDS011;14556;52.222;4.510;2022-07-29T08:05:09;1.83;;;1.27;;
27013;SDS011;14556;52.222;4.510;2022-07-29T08:07:38;3.67;;;1.43;;
27013;SDS011;14556;52.222;4.510;2022-07-29T08:10:05;3.87;;;1.70;;
27013;SDS011;14556;52.222;4.510;2022-07-29T08:12:31;3.53;;;1.93;;
27013;SDS011;14556;52.222;4.510;2022-07-29T08:14:58;4.17;;;1.87;;
27013;SDS011;14556;52.222;4.510;2022-07-29T08:17:24;2.87;;;1.53;;
27013;SDS011;14556;52.222;4.510;2022-07-29T08:19:52;4.27;;;1.27;;
27013;SDS011;14556;52.222;4.510;2022-07-29T08:22:19;4.30;;;2.13;;
27013;SDS011;14556;52.222;4.510;2022-07-29T08:24:45;4.37;;;1.60;;
27013;SDS011;14556;52.222;4.510;2022-07-29T08:27:22;3.63;;;1.70;;
27013;SDS011;14556;52.222;4.510;2022-07-29T08:30:08;4.80;;;1.60;;
27013;SDS011;14556;52.222;4.510;2022-07-29T08:32:36;7.07;;;2.30;;
27013;SDS011;14556;52.222;4.510;2022-07-29T08:35:19;2.33;;;1.70;;
27013;SDS011;14556;52.222;4.510;2022-07-29T08:37:47;6.10;;;1.87;;
27013;SDS011;14556;52.222;4.510;2022-07-29T08:40:14;2.60;;;1.40;;
27013;SDS011;14556;52.222;4.510;2022-07-29T08:42:40;2.60;;;1.50;;
27013;SDS011;14556;52.222;4.510;2022-07-29T08:45:07;4.40;;;1.77;;
27013;SDS011;14556;52.222;4.510;2022-07-29T08:47:34;4.20;;;1.80;;
27013;SDS011;14556;52.222;4.510;2022-07-29T08:50:06;3.73;;;1.57;;
27013;SDS011;14556;52.222;4.510;2022-07-29T08:52:35;5.63;;;2.03;;
27013;SDS011;14556;52.222;4.510;2022-07-29T08:55:04;2.73;;;1.37;;
27013;SDS011;14556;52.222;4.510;2022-07-29T08:57:32;4.03;;;1.57;;
27013;SDS011;14556;52.222;4.510;2022-07-29T09:00:03;3.97;;;2.13;;
27013;SDS011;14556;52.222;4.510;2022-07-29T09:02:41;2.43;;;1.80;;
27013;SDS011;14556;52.222;4.510;2022-07-29T09:05:13;2.90;;;1.67;;
27013;SDS011;14556;52.222;4.510;2022-07-29T09:07:40;3.60;;;1.80;;
27013;SDS011;14556;52.222;4.510;2022-07-29T09:10:09;7.20;;;2.00;;
27013;SDS011;14556;52.222;4.510;2022-07-29T09:12:37;2.37;;;1.43;;
27013;SDS011;14556;52.222;4.510;2022-07-29T09:15:04;3.80;;;1.87;;
27013;SDS011;14556;52.222;4.510;2022-07-29T09:17:41;7.57;;;1.60;;
27013;SDS011;14556;52.222;4.510;2022-07-29T09:20:12;4.83;;;1.80;;
27013;SDS011;14556;52.222;4.510;2022-07-29T09:22:40;4.50;;;1.40;;
27013;SDS011;14556;52.222;4.510;2022-07-29T09:25:07;5.80;;;1.83;;
27013;SDS011;14556;52.222;4.510;2022-07-29T09:27:35;3.63;;;2.00;;
27013;SDS011;14556;52.222;4.510;2022-07-29T09:30:05;2.47;;;1.50;;
27013;SDS011;14556;52.222;4.510;2022-07-29T09:32:56;4.87;;;2.17;;
27013;SDS011;14556;52.222;4.510;2022-07-29T09:35:27;5.77;;;1.80;;
27013;SDS011;14556;52.222;4.510;2022-07-29T09:37:54;3.40;;;2.00;;
27013;SDS011;14556;52.222;4.510;2022-07-29T09:40:21;5.73;;;1.70;;
27013;SDS011;14556;52.222;4.510;2022-07-29T09:42:51;4.67;;;1.60;;
27013;SDS011;14556;52.222;4.510;2022-07-29T09:45:32;4.13;;;1.43;;
27013;SDS011;14556;52.222;4.510;2022-07-29T09:48:22;4.60;;;2.03;;
27013;SDS011;14556;52.222;4.510;2022-07-29T09:50:48;2.70;;;1.90;;
27013;SDS011;14556;52.222;4.510;2022-07-29T09:56:04;6.27;;;2.00;;
27013;SDS011;14556;52.222;4.510;2022-07-29T09:58:31;2.10;;;1.60;;
27013;SDS011;14556;52.222;4.510;2022-07-29T10:00:59;3.93;;;2.37;;
27013;SDS011;14556;52.222;4.510;2022-07-29T10:03:26;5.83;;;2.60;;
27013;SDS011;14556;52.222;4.510;2022-07-29T10:06:11;4.60;;;2.40;;
27013;SDS011;14556;52.222;4.510;2022-07-29T10:08:39;3.67;;;1.47;;
27013;SDS011;14556;52.222;4.510;2022-07-29T10:11:17;3.43;;;2.53;;
27013;SDS011;14556;52.222;4.510;2022-07-29T10:13:45;7.37;;;2.10;;
27013;SDS011;14556;52.222;4.510;2022-07-29T10:16:13;7.17;;;1.73;;
27013;SDS011;14556;52.222;4.510;2022-07-29T10:18:41;5.53;;;2.20;;
27013;SDS011;14556;52.222;4.510;2022-07-29T10:21:09;3.57;;;1.80;;
27013;SDS011;14556;52.222;4.510;2022-07-29T10:23:47;4.60;;;1.93;;
27013;SDS011;14556;52.222;4.510;2022-07-29T10:26:15;3.87;;;1.47;;
27013;SDS011;14556;52.222;4.510;2022-07-29T10:28:41;3.07;;;1.87;;
27013;SDS011;14556;52.222;4.510;2022-07-29T10:31:09;3.73;;;1.73;;
27013;SDS011;14556;52.222;4.510;2022-07-29T10:36:54;2.50;;;1.73;;
27013;SDS011;14556;52.222;4.510;2022-07-29T10:42:55;2.57;;;1.67;;
27013;SDS011;14556;52.222;4.510;2022-07-29T10:45:29;5.80;;;1.27;;
27013;SDS011;14556;52.222;4.510;2022-07-29T10:48:03;2.33;;;1.17;;
27013;SDS011;14556;52.222;4.510;2022-07-29T10:53:22;4.27;;;1.67;;
27013;SDS011;14556;52.222;4.510;2022-07-29T10:55:51;3.00;;;1.93;;
27013;SDS011;14556;52.222;4.510;2022-07-29T10:58:22;2.33;;;1.40;;
27013;SDS011;14556;52.222;4.510;2022-07-29T11:00:53;3.67;;;1.33;;
27013;SDS011;14556;52.222;4.510;2022-07-29T11:06:16;3.20;;;1.70;;
27013;SDS011;14556;52.222;4.510;2022-07-29T11:11:42;5.00;;;1.87;;
27013;SDS011;14556;52.222;4.510;2022-07-29T11:14:12;5.60;;;1.90;;
27013;SDS011;14556;52.222;4.510;2022-07-29T11:17:03;5.07;;;1.70;;
27013;SDS011;14556;52.222;4.510;2022-07-29T11:19:32;4.13;;;1.60;;
27013;SDS011;14556;52.222;4.510;2022-07-29T11:22:00;4.77;;;1.60;;
27013;SDS011;14556;52.222;4.510;2022-07-29T11:24:28;2.80;;;1.50;;
27013;SDS011;14556;52.222;4.510;2022-07-29T11:27:17;2.00;;;1.50;;
27013;SDS011;14556;52.222;4.510;2022-07-29T11:29:54;3.87;;;1.60;;
27013;SDS011;14556;52.222;4.510;2022-07-29T11:32:35;5.90;;;1.60;;
27013;SDS011;14556;52.222;4.510;2022-07-29T11:43:53;7.53;;;1.73;;
27013;SDS011;14556;52.222;4.510;2022-07-29T11:49:13;4.80;;;1.50;;
27013;SDS011;14556;52.222;4.510;2022-07-29T11:51:53;4.53;;;1.87;;
27013;SDS011;14556;52.222;4.510;2022-07-29T11:54:23;3.80;;;1.80;;
27013;SDS011;14556;52.222;4.510;2022-07-29T11:56:55;3.83;;;1.50;;
27013;SDS011;14556;52.222;4.510;2022-07-29T11:59:24;4.37;;;1.70;;
27013;SDS011;14556;52.222;4.510;2022-07-29T12:01:59;6.50;;;1.83;;
27013;SDS011;14556;52.222;4.510;2022-07-29T12:04:50;5.27;;;1.90;;
27013;SDS011;14556;52.222;4.510;2022-07-29T12:07:18;3.93;;;1.73;;
27013;SDS011;14556;52.222;4.510;2022-07-29T12:10:00;6.23;;;2.23;;
27013;SDS011;14556;52.222;4.510;2022-07-29T12:12:28;2.53;;;1.67;;
27013;SDS011;14556;52.222;4.510;2022-07-29T12:14:55;5.10;;;1.97;;
27013;SDS011;14556;52.222;4.510;2022-07-29T12:17:24;3.33;;;1.70;;
27013;SDS011;14556;52.222;4.510;2022-07-29T12:19:57;4.10;;;1.97;;
27013;SDS011;14556;52.222;4.510;2022-07-29T12:22:28;4.37;;;2.20;;
27013;SDS011;14556;52.222;4.510;2022-07-29T12:25:01;2.70;;;1.57;;
27013;SDS011;14556;52.222;4.510;2022-07-29T12:27:59;3.53;;;1.57;;
27013;SDS011;14556;52.222;4.510;2022-07-29T12:30:43;4.13;;;2.13;;
27013;SDS011;14556;52.222;4.510;2022-07-29T12:35:50;9.10;;;2.20;;
27013;SDS011;14556;52.222;4.510;2022-07-29T12:38:31;5.50;;;2.00;;
27013;SDS011;14556;52.222;4.510;2022-07-29T12:41:00;6.17;;;2.10;;
27013;SDS011;14556;52.222;4.510;2022-07-29T12:43:30;4.90;;;2.10;;
27013;SDS011;14556;52.222;4.510;2022-07-29T12:45:56;8.37;;;2.27;;
27013;SDS011;14556;52.222;4.510;2022-07-29T12:48:33;3.33;;;1.97;;
27013;SDS011;14556;52.222;4.510;2022-07-29T12:51:04;3.83;;;2.27;;
27013;SDS011;14556;52.222;4.510;2022-07-29T12:53:32;3.03;;;1.63;;
27013;SDS011;14556;52.222;4.510;2022-07-29T12:56:01;4.37;;;1.90;;
27013;SDS011;14556;52.222;4.510;2022-07-29T12:58:49;9.43;;;2.17;;
27013;SDS011;14556;52.222;4.510;2022-07-29T13:01:17;5.50;;;1.80;;
27013;SDS011;14556;52.222;4.510;2022-07-29T13:03:57;6.40;;;2.20;;
27013;SDS011;14556;52.222;4.510;2022-07-29T13:11:41;3.10;;;1.60;;
27013;SDS011;14556;52.222;4.510;2022-07-29T13:14:16;6.63;;;1.57;;
27013;SDS011;14556;52.222;4.510;2022-07-29T13:17:05;2.47;;;1.60;;
27013;SDS011;14556;52.222;4.510;2022-07-29T13:19:34;2.43;;;1.60;;
27013;SDS011;14556;52.222;4.510;2022-07-29T13:22:09;7.77;;;1.90;;
27013;SDS011;14556;52.222;4.510;2022-07-29T13:24:50;6.67;;;2.13;;
27013;SDS011;14556;52.222;4.510;2022-07-29T13:27:19;3.40;;;1.47;;
27013;SDS011;14556;52.222;4.510;2022-07-29T13:29:47;6.97;;;2.13;;
27013;SDS011;14556;52.222;4.510;2022-07-29T13:32:17;4.23;;;1.50;;
27013;SDS011;14556;52.222;4.510;2022-07-29T13:34:53;6.00;;;3.07;;
27013;SDS011;14556;52.222;4.510;2022-07-29T13:37:21;7.67;;;2.33;;
27013;SDS011;14556;52.222;4.510;2022-07-29T13:39:47;3.83;;;2.00;;
27013;SDS011;14556;52.222;4.510;2022-07-29T13:42:18;5.10;;;1.60;;
27013;SDS011;14556;52.222;4.510;2022-07-29T13:44:45;5.40;;;2.10;;
27013;SDS011;14556;52.222;4.510;2022-07-29T13:47:11;5.20;;;1.67;;
27013;SDS011;14556;52.222;4.510;2022-07-29T13:49:38;4.10;;;1.80;;
27013;SDS011;14556;52.222;4.510;2022-07-29T13:52:05;2.33;;;1.60;;
27013;SDS011;14556;52.222;4.510;2022-07-29T13:54:33;5.50;;;1.83;;
27013;SDS011;14556;52.222;4.510;2022-07-29T13:57:07;5.93;;;1.73;;
27013;SDS011;14556;52.222;4.510;2022-07-29T13:59:35;3.57;;;1.47;;
27013;SDS011;14556;52.222;4.510;2022-07-29T14:02:01;4.67;;;1.33;;
27013;SDS011;14556;52.222;4.510;2022-07-29T14:04:29;2.80;;;1.50;;
27013;SDS011;14556;52.222;4.510;2022-07-29T14:06:55;4.60;;;2.27;;
27013;SDS011;14556;52.222;4.510;2022-07-29T14:09:22;4.10;;;1.53;;
27013;SDS011;14556;52.222;4.510;2022-07-29T14:11:48;4.07;;;1.50;;
27013;SDS011;14556;52.222;4.510;2022-07-29T14:14:17;3.63;;;1.30;;
27013;SDS011;14556;52.222;4.510;2022-07-29T14:16:43;4.20;;;1.80;;
27013;SDS011;14556;52.222;4.510;2022-07-29T14:19:15;2.13;;;1.20;;
27013;SDS011;14556;52.222;4.510;2022-07-29T14:21:42;5.73;;;1.67;;
27013;SDS011;14556;52.222;4.510;2022-07-29T14:24:10;6.07;;;1.80;;
27013;SDS011;14556;52.222;4.510;2022-07-29T14:26:48;4.07;;;1.43;;
27013;SDS011;14556;52.222;4.510;2022-07-29T14:29:14;2.77;;;1.23;;
27013;SDS011;14556;52.222;4.510;2022-07-29T14:31:41;5.13;;;1.70;;
27013;SDS011;14556;52.222;4.510;2022-07-29T14:34:09;6.80;;;1.33;;
27013;SDS011;14556;52.222;4.510;2022-07-29T14:36:35;4.47;;;1.53;;
27013;SDS011;14556;52.222;4.510;2022-07-29T14:39:02;4.73;;;1.50;;
27013;SDS011;14556;52.222;4.510;2022-07-29T14:41:28;3.73;;;1.63;;
27013;SDS011;14556;52.222;4.510;2022-07-29T14:43:55;2.13;;;1.33;;
27013;SDS011;14556;52.222;4.510;2022-07-29T14:46:22;5.60;;;1.73;;
27013;SDS011;14556;52.222;4.510;2022-07-29T14:48:48;5.50;;;1.70;;
27013;SDS011;14556;52.222;4.510;2022-07-29T14:51:15;4.40;;;1.60;;
27013;SDS011;14556;52.222;4.510;2022-07-29T14:53:41;3.43;;;1.70;;
27013;SDS011;14556;52.222;4.510;2022-07-29T14:56:08;4.47;;;1.13;;
27013;SDS011;14556;52.222;4.510;2022-07-29T14:58:58;7.80;;;2.00;;
27013;SDS011;14556;52.222;4.510;2022-07-29T15:01:24;6.67;;;1.70;;
27013;SDS011;14556;52.222;4.510;2022-07-29T15:03:51;6.47;;;1.77;;
27013;SDS011;14556;52.222;4.510;2022-07-29T15:06:23;2.80;;;1.60;;
27013;SDS011;14556;52.222;4.510;2022-07-29T15:08:49;6.50;;;2.23;;
27013;SDS011;14556;52.222;4.510;2022-07-29T15:11:16;5.80;;;1.60;;
27013;SDS011;14556;52.222;4.510;2022-07-29T15:13:42;9.13;;;1.93;;
27013;SDS011;14556;52.222;4.510;2022-07-29T15:16:09;7.17;;;1.70;;
27013;SDS011;14556;52.222;4.510;2022-07-29T15:18:39;3.97;;;1.37;;
27013;SDS011;14556;52.222;4.510;2022-07-29T15:21:06;7.23;;;1.53;;
27013;SDS011;14556;52.222;4.510;2022-07-29T15:23:33;4.10;;;1.60;;
27013;SDS011;14556;52.222;4.510;2022-07-29T15:26:03;7.10;;;1.70;;
27013;SDS011;14556;52.222;4.510;2022-07-29T15:28:30;5.80;;;1.60;;
27013;SDS011;14556;52.222;4.510;2022-07-29T15:30:56;3.93;;;1.73;;
27013;SDS011;14556;52.222;4.510;2022-07-29T15:33:23;5.33;;;1.30;;
27013;SDS011;14556;52.222;4.510;2022-07-29T15:35:49;3.07;;;1.40;;
27013;SDS011;14556;52.222;4.510;2022-07-29T15:38:16;4.97;;;1.50;;
27013;SDS011;14556;52.222;4.510;2022-07-29T15:40:43;2.13;;;1.40;;
27013;SDS011;14556;52.222;4.510;2022-07-29T15:43:11;7.80;;;1.60;;
27013;SDS011;14556;52.222;4.510;2022-07-29T15:45:39;6.83;;;1.70;;
27013;SDS011;14556;52.222;4.510;2022-07-29T15:48:07;4.70;;;1.43;;
27013;SDS011;14556;52.222;4.510;2022-07-29T15:50:39;3.30;;;1.10;;
27013;SDS011;14556;52.222;4.510;2022-07-29T15:53:06;3.40;;;1.60;;
27013;SDS011;14556;52.222;4.510;2022-07-29T15:55:32;4.67;;;1.73;;